createdAt,value
2022-10-28T00:01:22.564Z,15.02
2022-10-28T00:06:28.651Z,15.38
2022-10-28T00:11:33.037Z,16.25
2022-10-28T00:16:37.165Z,16.20
2022-10-28T00:21:40.562Z,16.33
2022-10-28T00:26:43.524Z,17.92
2022-10-28T00:31:45.746Z,16.13
2022-10-28T00:36:48.399Z,17.77
2022-10-28T00:41:55.138Z,20.33
2022-10-28T00:46:56.696Z,17.27
2022-10-28T00:52:13.165Z,14.70
2022-10-28T00:57:18.645Z,17.65
2022-10-28T01:02:20.848Z,14.05
2022-10-28T01:07:22.925Z,18.42
2022-10-28T01:12:49.326Z,17.10
2022-10-28T01:18:04.495Z,17.35
2022-10-28T01:23:21.243Z,14.57
2022-10-28T01:28:38.020Z,11.90
2022-10-28T01:33:51.204Z,13.45
2022-10-28T01:39:34.462Z,16.35
2022-10-28T01:44:45.807Z,14.20
2022-10-28T01:49:54.553Z,14.18
2022-10-28T01:55:03.367Z,14.93
2022-10-28T02:00:05.701Z,15.45
2022-10-28T02:05:46.285Z,18.80
2022-10-28T02:11:06.574Z,12.30
2022-10-28T02:16:42.281Z,11.40
2022-10-28T02:22:15.305Z,12.07
2022-10-28T02:27:41.874Z,11.30
2022-10-28T02:32:48.870Z,11.48
2022-10-28T02:37:52.515Z,13.57
2022-10-28T02:43:03.933Z,12.13
2022-10-28T02:48:18.718Z,13.75
2022-10-28T02:58:40.712Z,13.43
2022-10-28T03:03:42.408Z,17.45
2022-10-28T03:08:43.944Z,13.82
2022-10-28T03:13:45.588Z,13.48
2022-10-28T03:18:47.141Z,15.38
2022-10-28T03:23:50.871Z,15.25
2022-10-28T03:28:52.527Z,15.75
2022-10-28T03:33:54.098Z,15.45
2022-10-28T03:38:55.662Z,17.10
2022-10-28T03:43:57.192Z,14.70
2022-10-28T03:48:58.727Z,13.00
2022-10-28T03:54:00.312Z,14.95
2022-10-28T03:59:01.872Z,15.07
2022-10-28T04:04:04.037Z,12.15
2022-10-28T04:09:05.582Z,13.38
2022-10-28T04:14:07.245Z,14.40
2022-10-28T04:19:08.797Z,11.07
2022-10-28T04:24:10.381Z,16.63
2022-10-28T04:29:11.906Z,17.55
2022-10-28T04:34:13.508Z,14.10
2022-10-28T04:39:15.140Z,14.40
2022-10-28T04:44:16.682Z,12.45
2022-10-28T04:49:18.224Z,13.55
2022-10-28T04:54:19.793Z,12.20
2022-10-28T04:59:21.522Z,15.82
2022-10-28T05:04:23.109Z,20.65
2022-10-28T05:09:24.698Z,13.88
2022-10-28T05:14:26.329Z,15.85
2022-10-28T05:19:27.858Z,13.20
2022-10-28T05:24:29.427Z,15.07
2022-10-28T05:29:33.302Z,16.58
2022-10-28T05:34:35.131Z,13.50
2022-10-28T05:39:36.664Z,16.70
2022-10-28T05:44:38.256Z,14.88
2022-10-28T05:49:39.861Z,22.40
2022-10-28T05:54:41.411Z,17.67
2022-10-28T05:59:42.960Z,14.02
2022-10-28T06:04:44.500Z,12.77
2022-10-28T06:09:46.049Z,18.58
2022-10-28T06:14:46.083Z,23.75
2022-10-28T06:19:47.785Z,15.88
2022-10-28T06:24:49.335Z,15.52
2022-10-28T06:29:50.869Z,20.40
2022-10-28T06:34:52.443Z,20.95
2022-10-28T06:39:54.801Z,18.85
2022-10-28T06:45:00.249Z,17.83
2022-10-28T06:50:03.679Z,19.92
2022-10-28T06:55:05.644Z,23.08
2022-10-28T07:00:07.967Z,22.85
2022-10-28T07:05:09.951Z,22.63
2022-10-28T07:10:11.506Z,15.65
2022-10-28T07:15:13.110Z,15.90
2022-10-28T07:20:14.761Z,19.67
2022-10-28T07:25:16.311Z,14.00
2022-10-28T07:30:18.019Z,15.55
2022-10-28T07:35:20.015Z,17.92
2022-10-28T07:40:22.341Z,20.73
2022-10-28T07:45:26.915Z,13.10
2022-10-28T07:50:28.452Z,20.00
2022-10-28T07:55:29.968Z,14.45
2022-10-28T08:00:31.648Z,14.90
2022-10-28T08:05:33.243Z,16.88
2022-10-28T08:10:34.785Z,15.45
2022-10-28T08:15:36.379Z,26.40
2022-10-28T08:20:43.816Z,15.18
2022-10-28T08:25:50.422Z,13.90
2022-10-28T08:31:04.290Z,13.90
2022-10-28T08:36:11.756Z,15.38
2022-10-28T08:41:52.562Z,15.35
2022-10-28T08:47:16.514Z,13.88
2022-10-28T08:52:29.247Z,11.20
2022-10-28T08:58:08.948Z,12.38
2022-10-28T09:03:13.562Z,8.48
2022-10-28T09:08:26.409Z,8.82
2022-10-28T09:13:51.124Z,13.25
2022-10-28T09:18:55.628Z,11.80
2022-10-28T09:23:59.368Z,12.15
2022-10-28T09:29:31.029Z,9.57
2022-10-28T09:34:40.116Z,9.23
2022-10-28T09:39:51.261Z,6.67
2022-10-28T09:44:59.819Z,10.02
2022-10-28T09:50:07.473Z,7.75
2022-10-28T09:55:20.284Z,13.52
2022-10-28T10:00:21.959Z,13.77
2022-10-28T10:05:24.786Z,13.95
2022-10-28T10:10:52.372Z,10.50
2022-10-28T10:15:58.835Z,11.35
2022-10-28T10:21:01.232Z,10.00
2022-10-28T10:26:09.722Z,11.52
2022-10-28T10:31:23.078Z,13.60
2022-10-28T10:36:29.016Z,10.45
2022-10-28T10:41:39.431Z,12.35
2022-10-28T10:46:40.968Z,11.32
2022-10-28T10:51:53.673Z,7.68
2022-10-28T10:57:09.221Z,7.75
2022-10-28T11:02:21.392Z,8.70
2022-10-28T11:07:23.174Z,7.68
2022-10-28T11:12:35.725Z,9.75
2022-10-28T11:17:37.348Z,11.00
2022-10-28T11:22:49.077Z,13.38
2022-10-28T11:28:13.942Z,7.78
2022-10-28T11:33:35.066Z,12.35
2022-10-28T11:38:58.855Z,7.97
2022-10-28T11:44:04.942Z,5.95
2022-10-28T11:49:28.844Z,6.57
2022-10-28T11:54:55.588Z,7.40
2022-10-28T12:00:12.491Z,9.93
2022-10-28T12:05:27.992Z,8.25
2022-10-28T12:10:45.869Z,9.52
2022-10-28T12:16:06.207Z,10.10
2022-10-28T12:21:41.709Z,10.13
2022-10-28T12:26:54.787Z,7.45
2022-10-28T12:32:02.916Z,10.75
2022-10-28T12:37:16.977Z,11.43
2022-10-28T12:42:18.516Z,8.50
2022-10-28T12:47:43.239Z,12.23
2022-10-28T12:52:53.635Z,11.88
2022-10-28T12:58:04.684Z,13.20
2022-10-28T13:03:11.594Z,6.95
2022-10-28T13:09:00.629Z,10.73
2022-10-28T13:14:13.980Z,6.80
2022-10-28T13:19:53.024Z,7.82
2022-10-28T13:25:06.668Z,10.47
2022-10-28T13:30:17.055Z,7.30
2022-10-28T13:35:24.044Z,9.15
2022-10-28T13:40:31.761Z,7.63
2022-10-28T13:45:56.621Z,7.32
2022-10-28T13:51:10.358Z,9.32
2022-10-28T13:56:16.062Z,8.13
2022-10-28T14:01:56.753Z,6.88
2022-10-28T14:07:12.721Z,10.82
2022-10-28T14:12:20.124Z,11.18
2022-10-28T14:17:26.021Z,12.25
2022-10-28T14:22:30.777Z,6.22
2022-10-28T14:27:42.993Z,10.95
2022-10-28T14:32:57.375Z,8.40
2022-10-28T14:38:17.442Z,10.13
2022-10-28T14:43:30.661Z,8.40
2022-10-28T14:48:41.566Z,7.22
2022-10-28T14:53:45.590Z,9.75
2022-10-28T14:58:47.387Z,7.82
2022-10-28T15:03:53.393Z,5.82
2022-10-28T15:08:56.712Z,9.48
2022-10-28T15:14:12.213Z,11.15
2022-10-28T15:19:21.322Z,8.32
2022-10-28T15:24:22.839Z,10.93
2022-10-28T15:29:24.680Z,18.20
2022-10-28T15:34:29.344Z,11.63
2022-10-28T15:39:30.936Z,9.88
2022-10-28T15:44:37.605Z,9.05
2022-10-28T15:49:40.867Z,7.93
2022-10-28T15:54:53.641Z,12.90
2022-10-28T16:00:23.091Z,11.70
2022-10-28T16:05:39.852Z,9.73
2022-10-28T16:10:48.435Z,10.70
2022-10-28T16:16:13.238Z,11.55
2022-10-28T16:21:20.969Z,7.78
2022-10-28T16:26:23.542Z,9.52
2022-10-28T16:31:28.547Z,11.75
2022-10-28T16:36:32.119Z,9.88
2022-10-28T16:41:33.722Z,11.68
2022-10-28T16:46:35.255Z,15.10
2022-10-28T16:51:36.804Z,15.23
2022-10-28T16:56:38.970Z,9.27
2022-10-28T17:01:40.648Z,13.05
2022-10-28T17:06:42.303Z,10.48
2022-10-28T17:11:43.867Z,12.63
2022-10-28T17:16:45.417Z,11.82
2022-10-28T17:21:46.940Z,10.93
2022-10-28T17:26:49.117Z,10.88
2022-10-28T17:31:50.727Z,12.95
2022-10-28T17:36:52.338Z,13.23
2022-10-28T17:41:53.950Z,14.57
2022-10-28T17:46:55.517Z,11.05
2022-10-28T17:51:57.098Z,13.60
2022-10-28T17:56:58.717Z,13.40
2022-10-28T18:02:00.379Z,14.07
2022-10-28T18:07:02.091Z,12.13
2022-10-28T18:12:03.891Z,11.75
2022-10-28T18:17:05.463Z,10.65
2022-10-28T18:22:07.059Z,13.35
2022-10-28T18:27:08.707Z,9.57
2022-10-28T18:32:12.053Z,13.98
2022-10-28T18:37:13.635Z,17.23
2022-10-28T18:42:19.239Z,18.88
2022-10-28T18:47:23.302Z,15.50
2022-10-28T18:52:24.829Z,17.52
2022-10-28T18:57:26.360Z,14.55
2022-10-28T19:02:30.576Z,22.50
2022-10-28T19:07:32.359Z,12.55
2022-10-28T19:12:33.932Z,13.95
2022-10-28T19:17:35.478Z,13.35
2022-10-28T19:22:37.087Z,11.07
2022-10-28T19:27:38.669Z,14.05
2022-10-28T19:32:40.287Z,14.20
2022-10-28T19:37:41.828Z,14.82
2022-10-28T19:42:43.388Z,12.65
2022-10-28T19:47:44.931Z,18.42
2022-10-28T19:52:46.475Z,14.68
2022-10-28T19:57:50.399Z,16.15
2022-10-28T20:02:54.379Z,14.32
2022-10-28T20:07:56.704Z,15.00
2022-10-28T20:12:58.524Z,18.42
2022-10-28T20:18:00.077Z,14.93
2022-10-28T20:23:01.606Z,16.80
2022-10-28T20:28:03.233Z,18.98
2022-10-28T20:33:06.545Z,15.80
2022-10-28T20:43:15.624Z,15.02
2022-10-28T20:48:17.151Z,12.73
2022-10-28T20:53:21.726Z,11.88
2022-10-28T20:58:27.372Z,12.18
2022-10-28T21:03:28.922Z,9.82
2022-10-28T21:08:30.762Z,16.38
2022-10-28T21:13:32.849Z,16.02
2022-10-28T21:18:36.063Z,15.85
2022-10-28T21:23:37.718Z,12.48
2022-10-28T21:28:41.494Z,15.70
2022-10-28T21:33:43.182Z,16.88
2022-10-28T21:38:45.073Z,19.05
2022-10-28T21:43:49.412Z,12.32
2022-10-28T21:48:52.013Z,17.10
2022-10-28T21:53:53.560Z,16.95
2022-10-28T21:58:56.173Z,16.38
2022-10-28T22:03:57.759Z,16.25
2022-10-28T22:08:59.462Z,22.55
2022-10-28T22:14:03.931Z,19.35
2022-10-28T22:19:08.175Z,16.42
2022-10-28T22:24:10.667Z,14.20
2022-10-28T22:29:12.257Z,16.63
2022-10-28T22:34:13.822Z,15.38
2022-10-28T22:39:15.497Z,20.73
2022-10-28T22:44:17.019Z,17.05
2022-10-28T22:49:18.636Z,12.02
2022-10-28T22:54:20.163Z,19.00
2022-10-28T22:59:21.722Z,18.67
2022-10-28T23:04:23.256Z,12.98
2022-10-28T23:09:24.817Z,16.50
2022-10-28T23:14:26.346Z,18.15
2022-10-28T23:19:27.906Z,14.50
2022-10-28T23:24:29.472Z,16.27
2022-10-28T23:29:31.088Z,21.08
2022-10-28T23:34:32.643Z,17.05
2022-10-28T23:39:34.172Z,17.13
2022-10-28T23:44:35.719Z,24.42
2022-10-28T23:49:37.256Z,13.98
2022-10-28T23:54:38.844Z,15.25
2022-10-28T23:59:40.392Z,18.92
